Time;durP1;ratioP1;P1;durP2;ratioP2;P2;SDS_P1;SDS_P2;PMS_P1;PMS_P2;Temp;Humidity;BMP_temperature;BMP_pressure;BME280_temperature;BME280_humidity;BME280_pressure;Samples;Min_cycle;Max_cycle;Signal;HPM_P1;HPM_P2
2022/12/14 00:02:11;;;;;;;;;48.67;37.67;;;;;;;;5062350;28;61793;-77
2022/12/14 00:04:36;;;;;;;;;41.67;40.00;;;;;;;;5060118;28;63877;-77
2022/12/14 00:07:01;;;;;;;;;65.67;47.00;;;;;;;;5062161;28;62174;-77
2022/12/14 00:09:27;;;;;;;;;44.33;39.33;;;;;;;;5062620;28;61895;-77
2022/12/14 00:11:52;;;;;;;;;48.33;38.67;;;;;;;;5062371;28;61631;-77
2022/12/14 00:14:17;;;;;;;;;65.00;42.00;;;;;;;;5060611;28;63814;-77
2022/12/14 00:16:42;;;;;;;;;51.67;39.00;;;;;;;;5061864;28;62007;-77
2022/12/14 00:19:09;;;;;;;;;49.00;40.00;;;;;;;;5060722;28;61742;-77
2022/12/14 00:21:35;;;;;;;;;46.00;38.67;;;;;;;;5061855;28;61941;-77
2022/12/14 00:24:00;;;;;;;;;60.67;46.33;;;;;;;;5061452;28;61787;-77
2022/12/14 00:26:27;;;;;;;;;65.33;47.00;;;;;;;;5061904;28;61869;-77
2022/12/14 00:28:53;;;;;;;;;52.00;38.33;;;;;;;;5060705;28;62082;-77
2022/12/14 00:31:19;;;;;;;;;50.67;37.67;;;;;;;;5062483;28;61862;-77
2022/12/14 00:33:44;;;;;;;;;46.33;34.67;;;;;;;;5061338;28;61992;-78
2022/12/14 00:36:10;;;;;;;;;43.50;39.50;;;;;;;;5061281;28;61817;-77
2022/12/14 00:38:36;;;;;;;;;60.33;46.00;;;;;;;;5062029;28;61820;-77
2022/12/14 00:41:01;;;;;;;;;48.67;40.33;;;;;;;;5060374;28;62278;-77
2022/12/14 00:43:26;;;;;;;;;43.67;36.00;;;;;;;;5060000;28;64815;-77
2022/12/14 00:45:52;;;;;;;;;59.33;36.33;;;;;;;;5061590;28;61859;-77
2022/12/14 00:48:21;;;;;;;;;39.67;31.33;;;;;;;;5061805;28;61850;-77
2022/12/14 00:50:47;;;;;;;;;36.00;25.00;;;;;;;;5060391;28;61920;-77
2022/12/14 00:53:12;;;;;;;;;49.33;38.67;;;;;;;;5059975;28;63213;-77
2022/12/14 00:55:38;;;;;;;;;37.33;34.00;;;;;;;;5051449;28;62036;-77
2022/12/14 00:58:04;;;;;;;;;52.33;38.67;;;;;;;;5041650;28;63124;-77
2022/12/14 01:00:29;;;;;;;;;52.33;40.00;;;;;;;;5041891;28;61992;-78
2022/12/14 01:02:54;;;;;;;;;38.67;29.67;;;;;;;;5040549;28;64757;-77
2022/12/14 01:05:20;;;;;;;;;26.00;22.25;;;;;;;;5044566;28;61757;-77
2022/12/14 01:07:45;;;;;;;;;42.67;32.33;;;;;;;;5043809;28;61829;-77
2022/12/14 01:10:10;;;;;;;;;47.67;34.00;;;;;;;;5044876;28;61709;-77
2022/12/14 01:12:35;;;;;;;;;34.33;28.00;;;;;;;;5043152;28;63369;-77
2022/12/14 01:15:01;;;;;;;;;39.00;31.00;;;;;;;;5044766;28;61674;-77
2022/12/14 01:17:27;;;;;;;;;26.33;25.67;;;;;;;;5043342;28;61803;-77
2022/12/14 01:19:52;;;;;;;;;44.33;36.00;;;;;;;;5043713;28;61738;-77
2022/12/14 01:22:17;;;;;;;;;31.00;23.67;;;;;;;;5044211;28;62621;-77
2022/12/14 01:24:43;;;;;;;;;40.00;27.00;;;;;;;;5044469;28;61813;-77
2022/12/14 01:27:09;;;;;;;;;39.00;29.00;;;;;;;;5044671;28;61780;-77
2022/12/14 01:29:34;;;;;;;;;39.67;27.33;;;;;;;;5045188;28;61869;-77
2022/12/14 01:31:59;;;;;;;;;34.33;25.33;;;;;;;;5043856;28;61730;-77
2022/12/14 01:34:25;;;;;;;;;37.75;23.75;;;;;;;;5044751;28;61981;-77
2022/12/14 01:36:50;;;;;;;;;48.00;37.67;;;;;;;;5044098;28;61674;-77
2022/12/14 01:39:15;;;;;;;;;32.33;27.67;;;;;;;;5043136;28;61771;-77
2022/12/14 01:41:46;;;;;;;;;43.33;33.33;;;;;;;;5043990;28;61887;-77
2022/12/14 01:44:11;;;;;;;;;31.67;26.33;;;;;;;;5044570;28;62186;-77
2022/12/14 01:46:37;;;;;;;;;30.33;22.00;;;;;;;;5043367;28;61854;-77
2022/12/14 01:49:22;;;;;;;;;25.67;25.00;;;;;;;;5044500;28;61811;-77
2022/12/14 01:51:54;;;;;;;;;35.33;27.33;;;;;;;;5043120;28;62981;-77
2022/12/14 01:54:21;;;;;;;;;30.67;21.67;;;;;;;;5044192;28;61825;-77
2022/12/14 01:56:47;;;;;;;;;36.67;27.33;;;;;;;;5060617;28;62086;-77
2022/12/14 01:59:17;;;;;;;;;32.00;32.00;;;;;;;;5063431;28;61823;-77
2022/12/14 02:01:43;;;;;;;;;34.00;29.00;;;;;;;;5063852;28;61818;-77
2022/12/14 02:04:09;;;;;;;;;29.00;23.33;;;;;;;;5064351;28;61784;-77
2022/12/14 02:06:37;;;;;;;;;30.50;25.50;;;;;;;;5064002;28;61819;-77
2022/12/14 02:09:08;;;;;;;;;40.00;24.75;;;;;;;;5064895;28;61764;-77
2022/12/14 02:11:53;;;;;;;;;28.00;25.00;;;;;;;;5063724;28;61870;-77
2022/12/14 02:14:19;;;;;;;;;48.00;31.00;;;;;;;;5062842;27;62186;-77
2022/12/14 02:16:44;;;;;;;;;33.25;22.75;;;;;;;;5063119;28;62245;-77
2022/12/14 02:19:09;;;;;;;;;37.75;31.75;;;;;;;;5064504;28;61888;-77
2022/12/14 02:21:45;;;;;;;;;31.50;23.25;;;;;;;;5061665;28;62657;-77
2022/12/14 02:24:13;;;;;;;;;31.25;27.25;;;;;;;;5064173;28;61979;-77
2022/12/14 02:26:38;;;;;;;;;37.00;25.25;;;;;;;;5064303;28;61756;-77
2022/12/14 02:29:22;;;;;;;;;40.75;29.00;;;;;;;;5063136;28;62168;-77
2022/12/14 02:32:13;;;;;;;;;36.50;24.75;;;;;;;;5063249;28;61878;-77
2022/12/14 02:35:11;;;;;;;;;31.75;26.25;;;;;;;;5001445;28;61963;-77
2022/12/14 02:37:37;;;;;;;;;36.33;24.33;;;;;;;;4981610;28;62068;-77
2022/12/14 02:40:13;;;;;;;;;34.67;25.00;;;;;;;;4982123;28;62110;-77
2022/12/14 02:42:38;;;;;;;;;29.75;25.00;;;;;;;;4981445;28;62034;-77
2022/12/14 02:45:16;;;;;;;;;28.33;21.33;;;;;;;;4981590;28;61852;-77
2022/12/14 02:47:53;;;;;;;;;39.33;30.33;;;;;;;;4981872;28;61859;-77
2022/12/14 02:50:32;;;;;;;;;23.75;20.50;;;;;;;;4965051;28;62205;-77
2022/12/14 02:53:20;;;;;;;;;39.67;28.00;;;;;;;;4980960;28;61953;-77
2022/12/14 02:55:50;;;;;;;;;44.50;31.00;;;;;;;;4981153;28;61737;-77
2022/12/14 02:58:21;;;;;;;;;33.25;26.50;;;;;;;;4981670;28;61805;-77
2022/12/14 03:00:47;;;;;;;;;44.00;25.00;;;;;;;;4981536;28;62300;-77
2022/12/14 03:03:12;;;;;;;;;32.00;27.25;;;;;;;;4964291;28;63823;-77
2022/12/14 03:05:37;;;;;;;;;31.50;26.75;;;;;;;;4980473;28;61809;-77
2022/12/14 03:08:09;;;;;;;;;32.00;26.00;;;;;;;;4964987;28;62167;-77
2022/12/14 03:10:53;;;;;;;;;34.33;27.33;;;;;;;;4988686;28;62180;-77
2022/12/14 03:13:21;;;;;;;;;31.50;25.75;;;;;;;;5042083;28;64423;-77
2022/12/14 03:15:51;;;;;;;;;30.50;23.00;;;;;;;;5063300;28;61900;-77
2022/12/14 03:18:17;;;;;;;;;29.00;24.75;;;;;;;;5063290;28;61879;-77
2022/12/14 03:20:46;;;;;;;;;39.33;25.00;;;;;;;;5061456;28;61790;-77
2022/12/14 03:23:14;;;;;;;;;28.00;26.00;;;;;;;;5061402;28;63484;-77
2022/12/14 03:25:46;;;;;;;;;29.25;18.50;;;;;;;;5061995;28;61981;-77
2022/12/14 03:28:14;;;;;;;;;37.67;25.00;;;;;;;;5063384;28;61780;-77
2022/12/14 03:30:41;;;;;;;;;36.33;23.33;;;;;;;;5063400;28;61802;-77
2022/12/14 03:33:10;;;;;;;;;37.00;32.33;;;;;;;;5062485;28;61752;-77
2022/12/14 03:35:45;;;;;;;;;17.00;11.00;;;;;;;;5060988;28;62091;-77
2022/12/14 03:38:33;;;;;;;;;46.67;31.33;;;;;;;;5062922;28;62015;-77
2022/12/14 03:41:25;;;;;;;;;37.50;24.75;;;;;;;;5054730;28;61877;-77
2022/12/14 03:44:08;;;;;;;;;39.67;31.00;;;;;;;;5056998;28;64828;-77
2022/12/14 03:46:34;;;;;;;;;33.33;24.33;;;;;;;;5062766;28;61789;-77
2022/12/14 03:49:11;;;;;;;;;35.75;21.50;;;;;;;;5063006;28;62194;-77
2022/12/14 03:51:48;;;;;;;;;26.75;23.25;;;;;;;;5062701;28;61911;-77
2022/12/14 03:54:25;;;;;;;;;30.00;22.50;;;;;;;;5062194;28;61860;-77
2022/12/14 03:56:58;;;;;;;;;31.67;27.33;;;;;;;;5062502;28;61994;-77
2022/12/14 03:59:26;;;;;;;;;22.00;13.33;;;;;;;;5061359;28;61946;-77
2022/12/14 04:01:58;;;;;;;;;33.00;25.75;;;;;;;;5062379;28;62023;-77
2022/12/14 04:04:32;;;;;;;;;29.00;26.50;;;;;;;;5060280;28;63727;-77
2022/12/14 04:07:15;;;;;;;;;33.75;27.25;;;;;;;;5077436;28;61787;-77
2022/12/14 04:09:57;;;;;;;;;33.75;21.25;;;;;;;;5060781;28;61811;-77
2022/12/14 04:20:59;;;;;;;;;28.00;26.33;;;;;;;;5062055;28;61880;-77
2022/12/14 04:26:20;;;;;;;;;34.33;26.67;;;;;;;;5061502;28;61806;-77
2022/12/14 04:31:34;;;;;;;;;31.67;27.00;;;;;;;;5061903;28;61710;-77
2022/12/14 04:34:02;;;;;;;;;18.00;7.25;;;;;;;;5061144;28;61870;-77
2022/12/14 04:36:48;;;;;;;;;29.67;23.33;;;;;;;;5060921;28;61794;-77
2022/12/14 04:39:16;;;;;;;;;32.00;25.67;;;;;;;;5062096;28;61727;-77
2022/12/14 04:41:44;;;;;;;;;28.75;20.75;;;;;;;;5061974;28;62063;-77
2022/12/14 04:44:16;;;;;;;;;30.00;22.50;;;;;;;;5062165;28;61897;-77
2022/12/14 04:46:41;;;;;;;;;32.00;24.00;;;;;;;;5060884;28;62034;-77
2022/12/14 04:49:11;;;;;;;;;24.50;19.00;;;;;;;;5060553;28;61885;-77
2022/12/14 04:51:50;;;;;;;;;35.50;25.25;;;;;;;;5060301;28;61934;-77
2022/12/14 04:54:22;;;;;;;;;15.00;12.50;;;;;;;;5062308;28;61716;-77
2022/12/14 04:56:52;;;;;;;;;39.33;28.67;;;;;;;;5042866;28;62058;-77
2022/12/14 04:59:17;;;;;;;;;39.33;27.00;;;;;;;;5040584;28;62186;-77
2022/12/14 05:01:50;;;;;;;;;33.75;25.50;;;;;;;;5041114;28;62091;-77
2022/12/14 05:04:34;;;;;;;;;33.33;25.00;;;;;;;;5042010;28;61906;-77
2022/12/14 05:07:00;;;;;;;;;36.25;22.50;;;;;;;;5039203;28;63660;-77
2022/12/14 05:09:31;;;;;;;;;34.67;26.00;;;;;;;;5040257;28;61791;-77
2022/12/14 05:11:56;;;;;;;;;34.00;23.25;;;;;;;;5041606;28;62038;-77
2022/12/14 05:14:25;;;;;;;;;31.33;22.33;;;;;;;;5041890;28;61719;-77
2022/12/14 05:16:51;;;;;;;;;33.75;22.25;;;;;;;;5039006;28;63459;-77
2022/12/14 05:19:16;;;;;;;;;29.00;22.75;;;;;;;;5041700;28;62474;-77
2022/12/14 05:21:47;;;;;;;;;24.33;22.33;;;;;;;;5041418;28;62405;-77
2022/12/14 05:24:13;;;;;;;;;24.00;21.00;;;;;;;;5041618;28;61801;-77
2022/12/14 05:26:38;;;;;;;;;31.67;25.00;;;;;;;;5040737;28;62848;-77
2022/12/14 05:29:04;;;;;;;;;32.00;22.67;;;;;;;;5041262;28;61674;-77
2022/12/14 05:31:29;;;;;;;;;29.67;27.67;;;;;;;;5041008;28;61855;-77
2022/12/14 05:33:54;;;;;;;;;29.00;19.75;;;;;;;;5039967;28;61747;-77
2022/12/14 05:36:19;;;;;;;;;28.67;25.00;;;;;;;;5038857;28;65102;-77
2022/12/14 05:38:45;;;;;;;;;34.00;30.33;;;;;;;;5039888;28;61849;-77
2022/12/14 05:41:10;;;;;;;;;36.75;27.75;;;;;;;;5039705;28;61729;-77
2022/12/14 05:43:36;;;;;;;;;29.25;24.00;;;;;;;;5041277;28;61916;-77
2022/12/14 05:46:02;;;;;;;;;28.75;22.75;;;;;;;;5040330;28;62002;-77
2022/12/14 05:48:27;;;;;;;;;21.75;21.00;;;;;;;;5042206;28;61818;-77
2022/12/14 05:50:53;;;;;;;;;31.50;26.25;;;;;;;;5044328;28;61714;-77
2022/12/14 05:53:18;;;;;;;;;28.50;25.00;;;;;;;;5043268;28;61826;-77
2022/12/14 05:55:47;;;;;;;;;30.00;23.00;;;;;;;;5052938;28;61869;-76
2022/12/14 05:58:12;;;;;;;;;29.25;23.75;;;;;;;;5063109;28;61749;-77
2022/12/14 06:00:38;;;;;;;;;42.50;33.25;;;;;;;;5064598;28;61737;-77
2022/12/14 06:03:04;;;;;;;;;31.75;28.00;;;;;;;;5064226;28;62461;-77
2022/12/14 06:05:29;;;;;;;;;34.75;27.50;;;;;;;;5063413;28;61995;-77
2022/12/14 06:07:54;;;;;;;;;43.33;35.00;;;;;;;;5064572;28;61900;-77
2022/12/14 06:10:19;;;;;;;;;46.33;29.67;;;;;;;;5064226;28;61697;-77
2022/12/14 06:12:45;;;;;;;;;65.00;45.33;;;;;;;;5064860;28;61817;-77
2022/12/14 06:15:10;;;;;;;;;52.00;38.33;;;;;;;;5062004;28;65052;-77
2022/12/14 06:17:36;;;;;;;;;43.00;35.67;;;;;;;;5064292;28;61880;-77
2022/12/14 06:20:01;;;;;;;;;41.33;29.00;;;;;;;;5062866;28;61738;-77
2022/12/14 06:22:26;;;;;;;;;37.33;30.00;;;;;;;;5062527;28;61851;-77
2022/12/14 06:24:52;;;;;;;;;43.00;26.00;;;;;;;;5063552;28;61736;-77
2022/12/14 06:27:17;;;;;;;;;30.50;18.00;;;;;;;;5062450;28;62066;-76
2022/12/14 06:29:42;;;;;;;;;35.00;30.50;;;;;;;;5065787;28;61766;-76
2022/12/14 06:32:07;;;;;;;;;36.67;29.67;;;;;;;;5063840;28;61957;-76
2022/12/14 06:34:33;;;;;;;;;28.00;23.50;;;;;;;;5063478;28;61844;-75
2022/12/14 06:36:58;;;;;;;;;28.00;19.67;;;;;;;;5063567;28;62078;-75
2022/12/14 06:39:23;;;;;;;;;36.25;25.00;;;;;;;;5063949;28;61757;-75
2022/12/14 06:41:49;;;;;;;;;40.33;30.00;;;;;;;;5064025;28;61858;-75
2022/12/14 06:44:15;;;;;;;;;34.00;27.00;;;;;;;;5063182;28;62031;-75
2022/12/14 06:46:40;;;;;;;;;33.67;28.33;;;;;;;;5062244;28;62051;-75
2022/12/14 06:49:06;;;;;;;;;38.33;28.67;;;;;;;;5062626;28;61964;-76
2022/12/14 06:51:31;;;;;;;;;38.67;30.00;;;;;;;;5063400;28;62087;-76
2022/12/14 06:53:57;;;;;;;;;34.75;30.25;;;;;;;;5063172;28;61868;-76
2022/12/14 06:56:23;;;;;;;;;38.00;26.50;;;;;;;;5061387;28;62565;-76
2022/12/14 06:58:49;;;;;;;;;32.25;21.50;;;;;;;;5062135;28;61899;-75
2022/12/14 07:01:15;;;;;;;;;17.50;15.75;;;;;;;;5047737;28;61916;-75
2022/12/14 07:03:41;;;;;;;;;38.75;26.25;;;;;;;;5042644;28;61717;-72
2022/12/14 07:06:10;;;;;;;;;34.75;25.00;;;;;;;;5052516;28;61701;-73
2022/12/14 07:08:37;;;;;;;;;30.33;25.67;;;;;;;;5063390;28;62115;-73
2022/12/14 07:11:03;;;;;;;;;30.00;23.33;;;;;;;;5065886;28;61871;-76
2022/12/14 07:13:28;;;;;;;;;33.50;28.75;;;;;;;;5062799;28;61891;-75
2022/12/14 07:15:55;;;;;;;;;26.50;22.75;;;;;;;;5063480;28;62019;-75
2022/12/14 07:18:20;;;;;;;;;16.25;11.75;;;;;;;;5061634;28;62008;-76
2022/12/14 07:20:59;;;;;;;;;36.00;31.00;;;;;;;;5060163;28;61957;-76
2022/12/14 07:23:25;;;;;;;;;35.67;25.00;;;;;;;;5055497;28;62674;-77
2022/12/14 07:25:51;;;;;;;;;30.00;28.00;;;;;;;;5052046;28;62251;-77
2022/12/14 07:28:17;;;;;;;;;35.00;28.67;;;;;;;;5050654;28;62028;-77
2022/12/14 07:30:46;;;;;;;;;35.33;28.67;;;;;;;;5052900;28;61844;-76
2022/12/14 07:33:12;;;;;;;;;39.00;31.00;;;;;;;;5050676;28;62651;-76
2022/12/14 07:35:37;;;;;;;;;30.00;26.33;;;;;;;;5052007;28;61860;-77
2022/12/14 07:38:02;;;;;;;;;35.00;25.00;;;;;;;;5049800;28;62138;-76
2022/12/14 07:40:28;;;;;;;;;34.00;28.33;;;;;;;;5056174;28;61939;-78
2022/12/14 07:42:54;;;;;;;;;36.50;28.25;;;;;;;;5053142;28;63812;-74
2022/12/14 07:45:19;;;;;;;;;29.33;23.67;;;;;;;;5042648;28;62023;-77
2022/12/14 07:47:45;;;;;;;;;36.00;25.00;;;;;;;;5042207;28;61927;-77
2022/12/14 07:50:10;;;;;;;;;36.00;25.00;;;;;;;;5042281;28;61741;-76
2022/12/14 07:52:36;;;;;;;;;30.00;27.00;;;;;;;;5041954;28;62706;-77
2022/12/14 07:55:01;;;;;;;;;48.33;38.33;;;;;;;;5045589;28;61717;-76
2022/12/14 07:57:26;;;;;;;;;29.67;26.33;;;;;;;;5062661;28;61940;-76
2022/12/14 07:59:51;;;;;;;;;35.00;24.00;;;;;;;;5062506;28;62415;-77
2022/12/14 08:02:17;;;;;;;;;38.00;26.75;;;;;;;;5061858;28;62096;-76
2022/12/14 08:04:42;;;;;;;;;33.25;26.25;;;;;;;;5060899;28;62015;-76
2022/12/14 08:07:07;;;;;;;;;28.33;25.00;;;;;;;;5062414;28;61855;-75
2022/12/14 08:09:32;;;;;;;;;28.50;20.75;;;;;;;;5062695;28;61737;-74
2022/12/14 08:11:58;;;;;;;;;32.67;28.00;;;;;;;;5061385;28;62772;-75
2022/12/14 08:14:23;;;;;;;;;29.67;27.33;;;;;;;;5062636;28;61815;-75
2022/12/14 08:16:49;;;;;;;;;34.33;29.67;;;;;;;;5062251;28;61849;-75
2022/12/14 08:19:14;;;;;;;;;25.33;22.33;;;;;;;;5062812;28;61720;-74
2022/12/14 08:21:40;;;;;;;;;37.33;30.67;;;;;;;;5059884;28;64999;-75
2022/12/14 08:24:05;;;;;;;;;36.00;26.33;;;;;;;;5062271;28;61880;-74
2022/12/14 08:26:30;;;;;;;;;34.67;26.33;;;;;;;;5062442;28;61856;-75
2022/12/14 08:28:56;;;;;;;;;49.67;42.00;;;;;;;;5062234;28;62084;-76
2022/12/14 08:31:23;;;;;;;;;40.50;28.50;;;;;;;;5060456;28;64864;-75
2022/12/14 08:33:49;;;;;;;;;53.33;42.00;;;;;;;;5060538;28;62036;-76
2022/12/14 08:36:15;;;;;;;;;56.67;42.00;;;;;;;;5060582;28;62214;-75
2022/12/14 08:38:41;;;;;;;;;69.00;45.00;;;;;;;;5061957;28;61840;-75
2022/12/14 08:41:07;;;;;;;;;46.75;29.50;;;;;;;;5060269;28;63713;-75
2022/12/14 08:43:33;;;;;;;;;45.00;39.67;;;;;;;;5060653;28;61784;-74
2022/12/14 08:45:58;;;;;;;;;45.00;37.33;;;;;;;;5061923;28;61808;-74
2022/12/14 08:48:23;;;;;;;;;55.67;43.33;;;;;;;;5062006;28;62220;-74
2022/12/14 08:50:49;;;;;;;;;58.00;40.67;;;;;;;;5061061;28;61962;-74
2022/12/14 08:53:14;;;;;;;;;54.00;37.33;;;;;;;;5061674;28;61800;-74
2022/12/14 08:55:40;;;;;;;;;35.67;29.00;;;;;;;;5061611;28;62185;-76
2022/12/14 08:58:05;;;;;;;;;30.00;28.00;;;;;;;;5061743;28;61701;-73
2022/12/14 09:00:30;;;;;;;;;39.00;28.67;;;;;;;;5061117;28;61899;-72
2022/12/14 09:02:55;;;;;;;;;44.33;29.00;;;;;;;;5061328;28;61886;-72
2022/12/14 09:05:21;;;;;;;;;41.33;31.00;;;;;;;;5061596;28;62063;-72
2022/12/14 09:07:46;;;;;;;;;49.67;38.67;;;;;;;;5061331;28;61896;-72
2022/12/14 09:10:11;;;;;;;;;36.67;33.00;;;;;;;;5061056;28;61787;-72
2022/12/14 09:12:37;;;;;;;;;32.75;27.50;;;;;;;;5060438;28;62171;-72
2022/12/14 09:15:13;;;;;;;;;35.33;27.00;;;;;;;;5052107;28;62358;-71
2022/12/14 09:17:38;;;;;;;;;40.75;30.25;;;;;;;;5041346;28;61896;-72
2022/12/14 09:20:04;;;;;;;;;28.50;25.25;;;;;;;;5040542;28;61806;-72
2022/12/14 09:22:30;;;;;;;;;37.33;30.33;;;;;;;;5041245;28;61806;-71
2022/12/14 09:24:55;;;;;;;;;36.00;26.33;;;;;;;;5055888;28;61826;-71
2022/12/14 09:27:21;;;;;;;;;55.00;33.00;;;;;;;;5065286;28;62030;-72
2022/12/14 09:29:46;;;;;;;;;29.25;25.00;;;;;;;;5064481;28;62020;-72
2022/12/14 09:32:12;;;;;;;;;33.75;24.00;;;;;;;;5064691;28;62139;-71
2022/12/14 09:34:37;;;;;;;;;32.75;23.00;;;;;;;;5065305;28;61934;-74
2022/12/14 09:37:03;;;;;;;;;46.75;31.75;;;;;;;;5064198;28;61816;-73
2022/12/14 09:39:29;;;;;;;;;45.25;35.75;;;;;;;;5064345;28;62108;-74
2022/12/14 09:41:54;;;;;;;;;38.50;27.25;;;;;;;;5063324;28;61884;-74
2022/12/14 09:44:26;;;;;;;;;32.00;24.50;;;;;;;;5065002;28;62035;-73
2022/12/14 09:46:51;;;;;;;;;44.50;32.75;;;;;;;;5064794;28;61686;-73
2022/12/14 09:49:24;;;;;;;;;36.50;31.00;;;;;;;;5064070;28;62003;-74
2022/12/14 09:51:50;;;;;;;;;34.25;27.00;;;;;;;;5059796;28;62030;-74
2022/12/14 09:54:21;;;;;;;;;49.00;38.25;;;;;;;;5043224;28;62235;-74
2022/12/14 09:56:46;;;;;;;;;43.25;33.00;;;;;;;;5062123;28;61742;-73
2022/12/14 09:59:16;;;;;;;;;53.50;38.50;;;;;;;;5063895;28;62609;-72
2022/12/14 10:01:52;;;;;;;;;2.50;2.50;;;;;;;;5062776;28;62020;-74
2022/12/14 10:04:36;;;;;;;;;47.00;29.50;;;;;;;;5061308;28;61710;-73
2022/12/14 10:07:04;;;;;;;;;35.25;30.25;;;;;;;;5063939;28;61947;-74
2022/12/14 10:09:48;;;;;;;;;38.75;33.00;;;;;;;;5054265;28;61686;-73
2022/12/14 10:12:14;;;;;;;;;41.50;30.00;;;;;;;;5042730;28;62032;-74
2022/12/14 10:14:39;;;;;;;;;42.00;29.50;;;;;;;;5044530;28;61881;-74
2022/12/14 10:17:04;;;;;;;;;38.50;33.25;;;;;;;;5044118;28;61744;-74
2022/12/14 10:19:43;;;;;;;;;44.67;42.00;;;;;;;;5054004;28;63457;-74
2022/12/14 10:22:08;;;;;;;;;37.00;28.00;;;;;;;;5063849;28;61891;-75
2022/12/14 10:24:40;;;;;;;;;43.00;32.50;;;;;;;;5064469;28;61756;-74
2022/12/14 10:27:06;;;;;;;;;44.75;30.50;;;;;;;;5063022;28;62011;-73
2022/12/14 10:29:53;;;;;;;;;36.75;33.00;;;;;;;;5062241;28;63889;-74
2022/12/14 10:32:29;;;;;;;;;44.00;31.25;;;;;;;;5063648;28;61846;-74
2022/12/14 10:34:54;;;;;;;;;43.00;32.00;;;;;;;;5062451;28;62116;-74
2022/12/14 10:37:28;;;;;;;;;46.50;36.50;;;;;;;;5063860;28;61765;-74
2022/12/14 10:40:17;;;;;;;;;42.75;30.25;;;;;;;;5062000;28;64912;-74
2022/12/14 10:42:54;;;;;;;;;41.00;28.00;;;;;;;;5049268;28;62157;-74
2022/12/14 10:45:26;;;;;;;;;45.00;34.00;;;;;;;;5059412;28;61648;-74
2022/12/14 10:47:56;;;;;;;;;41.67;35.67;;;;;;;;5049216;28;62068;-74
2022/12/14 10:50:27;;;;;;;;;45.50;35.00;;;;;;;;5041322;28;63633;-74
2022/12/14 10:52:53;;;;;;;;;46.67;36.67;;;;;;;;5043769;28;61716;-73
2022/12/14 10:55:37;;;;;;;;;35.50;33.00;;;;;;;;5049229;28;62092;-74
2022/12/14 10:58:02;;;;;;;;;51.00;34.25;;;;;;;;5063737;28;61867;-74
2022/12/14 11:00:28;;;;;;;;;34.75;34.25;;;;;;;;5062873;28;61707;-74
2022/12/14 11:02:54;;;;;;;;;45.00;34.75;;;;;;;;5063185;28;62228;-74
2022/12/14 11:05:26;;;;;;;;;37.00;35.75;;;;;;;;5062743;28;62020;-74
2022/12/14 11:07:51;;;;;;;;;43.00;29.00;;;;;;;;5063377;28;61947;-73
2022/12/14 11:10:20;;;;;;;;;47.25;32.50;;;;;;;;5062655;28;61877;-74
2022/12/14 11:13:01;;;;;;;;;47.25;30.25;;;;;;;;5063608;28;61884;-74
2022/12/14 11:15:40;;;;;;;;;42.75;34.50;;;;;;;;5041640;28;61742;-74
2022/12/14 11:18:15;;;;;;;;;42.25;36.50;;;;;;;;5041788;28;61857;-74
2022/12/14 11:20:57;;;;;;;;;32.00;28.25;;;;;;;;5040541;28;63430;-74
2022/12/14 11:23:25;;;;;;;;;42.25;30.50;;;;;;;;5043221;28;61838;-72
2022/12/14 11:25:58;;;;;;;;;48.25;28.00;;;;;;;;5041799;28;61919;-76
2022/12/14 11:28:28;;;;;;;;;40.25;30.50;;;;;;;;5041828;28;62164;-76
2022/12/14 11:30:58;;;;;;;;;40.50;26.25;;;;;;;;5041411;28;64417;-76
2022/12/14 11:33:27;;;;;;;;;46.50;29.50;;;;;;;;5042193;28;62257;-74
2022/12/14 11:35:52;;;;;;;;;35.25;32.50;;;;;;;;5054300;28;62505;-73
2022/12/14 11:38:18;;;;;;;;;38.50;36.00;;;;;;;;5044560;28;62125;-74
2022/12/14 11:40:44;;;;;;;;;31.75;28.50;;;;;;;;5045947;28;61883;-74
2022/12/14 11:43:20;;;;;;;;;31.50;26.00;;;;;;;;5042790;28;62375;-74
2022/12/14 11:45:49;;;;;;;;;51.75;33.00;;;;;;;;5039959;28;61797;-73
2022/12/14 11:48:15;;;;;;;;;32.00;24.50;;;;;;;;5041368;28;61804;-73
2022/12/14 11:50:40;;;;;;;;;35.50;24.00;;;;;;;;5040110;28;63338;-73
2022/12/14 11:53:09;;;;;;;;;52.75;31.50;;;;;;;;5042650;28;62256;-73
2022/12/14 11:55:37;;;;;;;;;25.00;17.00;;;;;;;;5050252;28;61988;-73
2022/12/14 11:58:04;;;;;;;;;43.75;32.75;;;;;;;;5061668;28;62079;-73
2022/12/14 12:00:37;;;;;;;;;44.75;36.00;;;;;;;;5055666;28;61891;-74
2022/12/14 12:03:18;;;;;;;;;47.50;34.00;;;;;;;;5060887;28;61743;-73
2022/12/14 12:05:43;;;;;;;;;34.75;28.25;;;;;;;;5061789;28;61895;-74
2022/12/14 12:08:20;;;;;;;;;32.00;23.75;;;;;;;;5054159;28;61843;-73
2022/12/14 12:10:48;;;;;;;;;45.75;37.75;;;;;;;;5047733;28;61982;-74
2022/12/14 12:13:17;;;;;;;;;39.00;30.25;;;;;;;;5052495;28;62171;-74
2022/12/14 12:15:47;;;;;;;;;41.25;32.00;;;;;;;;5049229;28;61985;-75
2022/12/14 12:18:14;;;;;;;;;39.25;31.50;;;;;;;;5050580;28;62060;-74
2022/12/14 12:20:46;;;;;;;;;47.00;30.50;;;;;;;;5052361;28;61914;-74
2022/12/14 12:23:18;;;;;;;;;45.50;35.50;;;;;;;;5058765;28;61932;-74
2022/12/14 12:25:46;;;;;;;;;42.25;30.50;;;;;;;;5060721;28;62234;-74
2022/12/14 12:28:16;;;;;;;;;42.00;32.25;;;;;;;;5061177;28;61995;-74
2022/12/14 12:30:44;;;;;;;;;46.25;33.50;;;;;;;;5061470;28;61932;-74
2022/12/14 12:33:21;;;;;;;;;35.25;30.25;;;;;;;;5061865;28;62114;-75
2022/12/14 12:35:52;;;;;;;;;36.50;30.00;;;;;;;;5061744;28;61884;-74
2022/12/14 12:38:22;;;;;;;;;37.50;29.75;;;;;;;;5059107;28;62079;-74
2022/12/14 12:41:06;;;;;;;;;39.50;30.75;;;;;;;;5055784;28;61769;-74
2022/12/14 12:43:45;;;;;;;;;43.75;30.00;;;;;;;;5049518;28;62096;-75
2022/12/14 12:46:14;;;;;;;;;36.25;24.25;;;;;;;;5057468;28;62026;-74
2022/12/14 12:48:45;;;;;;;;;45.00;36.50;;;;;;;;5050267;28;62463;-74
2022/12/14 12:51:32;;;;;;;;;35.50;30.75;;;;;;;;5049964;28;62177;-74
2022/12/14 12:54:00;;;;;;;;;44.75;33.00;;;;;;;;5056202;28;61841;-74
2022/12/14 12:56:27;;;;;;;;;40.50;32.25;;;;;;;;5054338;28;61808;-75
2022/12/14 12:58:53;;;;;;;;;33.75;27.75;;;;;;;;5049273;28;61944;-75
2022/12/14 13:01:29;;;;;;;;;44.75;37.25;;;;;;;;5044451;28;63881;-75
2022/12/14 13:03:59;;;;;;;;;44.00;35.25;;;;;;;;5054315;28;62021;-75
2022/12/14 13:06:41;;;;;;;;;48.75;35.25;;;;;;;;5074262;28;62026;-75
2022/12/14 13:09:19;;;;;;;;;41.75;34.50;;;;;;;;5052598;28;61710;-75
2022/12/14 13:11:46;;;;;;;;;30.75;26.25;;;;;;;;5048213;28;63539;-76
2022/12/14 13:14:11;;;;;;;;;43.50;33.75;;;;;;;;5047301;28;62038;-76
2022/12/14 13:16:40;;;;;;;;;32.50;23.75;;;;;;;;5052196;28;62313;-76
2022/12/14 13:19:22;;;;;;;;;52.75;39.75;;;;;;;;5057489;28;62004;-75
2022/12/14 13:21:50;;;;;;;;;50.00;39.00;;;;;;;;5057100;28;63524;-75
2022/12/14 13:24:16;;;;;;;;;46.50;34.50;;;;;;;;5049092;28;61675;-75
2022/12/14 13:26:59;;;;;;;;;52.25;35.00;;;;;;;;5057554;28;61991;-75
2022/12/14 13:29:33;;;;;;;;;43.75;35.00;;;;;;;;5051189;28;61842;-75
2022/12/14 13:32:08;;;;;;;;;51.75;35.25;;;;;;;;5056079;28;62238;-75
2022/12/14 13:34:51;;;;;;;;;44.75;35.50;;;;;;;;5060293;28;61999;-75
2022/12/14 13:37:22;;;;;;;;;47.75;37.00;;;;;;;;5047760;28;62039;-75
2022/12/14 13:39:54;;;;;;;;;40.25;34.25;;;;;;;;5042707;28;62231;-74
2022/12/14 13:42:35;;;;;;;;;50.00;39.00;;;;;;;;5060719;28;62950;-75
2022/12/14 13:45:02;;;;;;;;;38.00;29.75;;;;;;;;5061370;28;62095;-75
2022/12/14 13:47:32;;;;;;;;;43.50;36.75;;;;;;;;5046337;28;61796;-75
2022/12/14 13:49:59;;;;;;;;;47.75;42.75;;;;;;;;5044498;28;61722;-76
2022/12/14 13:52:29;;;;;;;;;38.50;29.50;;;;;;;;5057205;28;63662;-74
2022/12/14 13:54:54;;;;;;;;;43.00;34.75;;;;;;;;5059116;28;61833;-75
2022/12/14 13:57:22;;;;;;;;;49.50;29.00;;;;;;;;5042866;28;62031;-75
2022/12/14 13:59:49;;;;;;;;;42.50;33.75;;;;;;;;5046601;28;61931;-75
2022/12/14 14:02:26;;;;;;;;;41.75;31.50;;;;;;;;5039863;28;61773;-75
2022/12/14 14:05:10;;;;;;;;;37.00;29.75;;;;;;;;5040892;28;61901;-75
2022/12/14 14:07:48;;;;;;;;;32.00;27.50;;;;;;;;5057084;28;62060;-78
2022/12/14 14:10:32;;;;;;;;;46.00;40.75;;;;;;;;5062503;28;62255;-75
2022/12/14 14:12:58;;;;;;;;;38.75;30.50;;;;;;;;5051919;28;61901;-75
2022/12/14 14:15:30;;;;;;;;;28.00;17.50;;;;;;;;5057063;28;61920;-75
2022/12/14 14:18:01;;;;;;;;;44.50;33.75;;;;;;;;5055920;28;62140;-75
2022/12/14 14:20:33;;;;;;;;;37.25;28.00;;;;;;;;5059624;28;62032;-75
2022/12/14 14:23:16;;;;;;;;;39.25;31.00;;;;;;;;5052809;28;61875;-76
2022/12/14 14:25:45;;;;;;;;;43.00;30.75;;;;;;;;5060513;28;61937;-78
2022/12/14 14:28:11;;;;;;;;;40.75;27.25;;;;;;;;5060389;28;62171;-76
2022/12/14 14:30:41;;;;;;;;;48.00;35.50;;;;;;;;5060733;28;61704;-78
2022/12/14 14:33:25;;;;;;;;;45.25;35.50;;;;;;;;5060768;28;62258;-78
2022/12/14 14:35:50;;;;;;;;;37.75;33.25;;;;;;;;5061844;28;61786;-77
2022/12/14 14:38:27;;;;;;;;;38.25;31.75;;;;;;;;5060935;28;61752;-79
2022/12/14 14:40:58;;;;;;;;;40.25;33.00;;;;;;;;5061063;28;61809;-76
2022/12/14 14:43:23;;;;;;;;;48.75;40.25;;;;;;;;5061250;28;64312;-77